Time;durP1;ratioP1;P1;durP2;ratioP2;P2;SDS_P1;SDS_P2;PMS_P1;PMS_P2;Temp;Humidity;BMP_temperature;BMP_pressure;BME280_temperature;BME280_humidity;BME280_pressure;Samples;Min_cycle;Max_cycle;Signal;HPM_P1;HPM_P2
2022/09/23 00:01:09;;;;;;;13.72;8.90;;;;;;;6.01;82.04;100735.59;1696025;84;27336;-68
2022/09/23 00:03:46;;;;;;;14.35;9.13;;;;;;;5.98;82.07;100734.27;1708941;83;25644;-68
2022/09/23 00:06:19;;;;;;;14.75;8.08;;;;;;;5.97;82.22;100732.64;1750007;82;25458;-68
2022/09/23 00:08:48;;;;;;;13.50;8.08;;;;;;;5.95;82.27;100728.84;1750010;81;25603;-68
2022/09/23 00:11:22;;;;;;;15.18;8.88;;;;;;;5.96;82.26;100725.67;1741936;82;29658;-69
2022/09/23 00:13:51;;;;;;;11.33;7.35;;;;;;;5.94;82.26;100722.39;1709077;83;27376;-69
2022/09/23 00:16:22;;;;;;;14.70;8.43;;;;;;;5.94;82.62;100730.45;1708940;83;25395;-69
2022/09/23 00:18:49;;;;;;;15.32;8.98;;;;;;;5.91;82.47;100726.44;1749286;82;25418;-69
2022/09/23 00:21:18;;;;;;;14.65;8.43;;;;;;;5.89;82.33;100729.10;1749968;82;25737;-69
2022/09/23 00:23:44;;;;;;;15.58;8.68;;;;;;;5.87;82.38;100727.23;1709268;83;25571;-69
2022/09/23 00:26:14;;;;;;;15.68;9.30;;;;;;;5.84;82.39;100728.58;1749822;80;27974;-69
2022/09/23 00:28:42;;;;;;;14.87;8.48;;;;;;;5.84;82.51;100729.09;1745073;81;25709;-69
2022/09/23 00:31:13;;;;;;;17.00;8.90;;;;;;;5.78;82.49;100722.92;1705789;83;25418;-69
2022/09/23 00:33:40;;;;;;;15.30;8.73;;;;;;;5.75;82.28;100723.45;1705418;84;29265;-69
2022/09/23 00:36:15;;;;;;;17.95;8.30;;;;;;;5.74;82.18;100725.88;1706346;83;25393;-69
2022/09/23 00:38:44;;;;;;;13.32;9.13;;;;;;;5.72;82.51;100725.31;1706368;84;26828;-68
2022/09/23 00:41:12;;;;;;;11.95;8.40;;;;;;;5.70;82.39;100720.75;1691277;83;25635;-68
2022/09/23 00:43:53;;;;;;;16.10;9.50;;;;;;;5.68;82.61;100726.39;1698936;83;25502;-68
2022/09/23 00:46:29;;;;;;;15.13;7.83;;;;;;;5.66;82.60;100723.72;1740366;82;25858;-68
2022/09/23 00:49:07;;;;;;;15.93;8.58;;;;;;;5.62;82.68;100720.75;1706359;83;25472;-67
2022/09/23 00:51:42;;;;;;;14.28;8.00;;;;;;;5.60;82.65;100726.39;1706376;83;27390;-68
2022/09/23 00:54:09;;;;;;;13.93;7.85;;;;;;;5.60;82.94;100726.90;1677729;84;25812;-68
2022/09/23 00:56:37;;;;;;;11.70;7.50;;;;;;;5.58;82.95;100725.02;1706260;83;25624;-68
2022/09/23 00:59:06;;;;;;;16.40;8.75;;;;;;;5.55;82.87;100729.05;1706291;83;25620;-68
2022/09/23 01:01:33;;;;;;;9.13;5.50;;;;;;;5.54;83.10;100725.30;1706480;83;25479;-68
2022/09/23 01:03:59;;;;;;;18.07;8.38;;;;;;;5.52;83.35;100721.53;1706326;83;27337;-67
2022/09/23 01:06:28;;;;;;;15.50;9.00;;;;;;;5.51;83.40;100725.81;1706254;83;25567;-67
2022/09/23 01:08:54;;;;;;;15.00;8.55;;;;;;;5.51;83.54;100725.81;1706314;83;25623;-67
2022/09/23 01:11:41;;;;;;;10.75;7.35;;;;;;;5.49;83.55;100726.08;1706332;84;25792;-67
2022/09/23 01:14:45;;;;;;;28.52;8.85;;;;;;;5.48;83.54;100720.97;1706289;83;25421;-67
2022/09/23 01:17:29;;;;;;;13.03;7.80;;;;;;;5.47;83.58;100723.40;1676526;82;29616;-68
2022/09/23 01:20:20;;;;;;;12.58;7.65;;;;;;;5.45;83.64;100718.30;1697630;82;25579;-67
2022/09/23 01:22:55;;;;;;;14.30;8.33;;;;;;;5.44;83.81;100715.33;1706515;83;25548;-68
2022/09/23 01:25:52;;;;;;;11.83;7.87;;;;;;;5.42;83.87;100712.11;1703616;83;25711;-68
2022/09/23 01:28:32;;;;;;;13.78;8.43;;;;;;;5.41;84.05;100712.66;1682414;84;25671;-68
2022/09/23 01:31:15;;;;;;;13.70;8.98;;;;;;;5.41;84.25;100711.83;1699169;83;27394;-69
2022/09/23 01:34:11;;;;;;;12.65;9.05;;;;;;;5.41;84.21;100716.68;1657513;86;25415;-68
2022/09/23 01:36:50;;;;;;;17.75;9.08;;;;;;;5.41;84.28;100714.00;1651657;85;26470;-68
2022/09/23 01:39:23;;;;;;;;;;;;;;;5.42;84.27;100709.42;1671857;85;25721;-67
2022/09/23 01:42:07;;;;;;;16.00;9.35;;;;;;;5.42;84.28;100706.75;1663546;85;25654;-67
2022/09/23 01:45:03;;;;;;;12.45;7.97;;;;;;;5.41;84.18;100706.46;1668443;85;28513;-67
2022/09/23 01:47:40;;;;;;;13.68;7.45;;;;;;;5.42;84.13;100710.77;1659790;84;25575;-67
2022/09/23 01:53:02;;;;;;;14.83;7.80;;;;;;;5.45;84.47;100713.45;1666417;85;25394;-67
2022/09/23 01:55:40;;;;;;;11.25;7.35;;;;;;;5.47;84.59;100711.33;1681534;85;25676;-67
2022/09/23 01:58:15;;;;;;;13.38;7.67;;;;;;;5.50;84.89;100710.77;1681589;84;27316;-67
2022/09/23 02:00:55;;;;;;;14.78;8.03;;;;;;;5.53;85.12;100710.25;1679348;85;25628;-67
2022/09/23 02:03:31;;;;;;;12.70;8.05;;;;;;;5.56;85.38;100710.52;1681480;85;25624;-68
2022/09/23 02:06:02;;;;;;;14.63;8.40;;;;;;;5.60;85.44;100716.99;1680317;85;25732;-68
2022/09/23 02:08:37;;;;;;;14.70;8.38;;;;;;;5.64;85.44;100711.90;1699008;83;25643;-68
2022/09/23 02:11:10;;;;;;;13.60;7.95;;;;;;;5.68;85.76;100718.87;1698974;83;27332;-69
2022/09/23 02:13:45;;;;;;;12.43;8.35;;;;;;;5.73;85.90;100716.20;1698886;83;25759;-68
2022/09/23 02:16:17;;;;;;;13.75;7.67;;;;;;;5.76;86.25;100712.45;1657465;84;25469;-68
2022/09/23 02:18:54;;;;;;;12.58;7.87;;;;;;;5.79;86.28;100702.53;1664614;84;25725;-69
2022/09/23 02:21:26;;;;;;;14.47;7.75;;;;;;;5.84;86.24;100698.22;1681108;85;25642;-69
2022/09/23 02:23:58;;;;;;;15.32;8.13;;;;;;;5.88;86.40;100704.69;1681602;85;29535;-68
2022/09/23 02:26:33;;;;;;;12.15;7.47;;;;;;;5.93;86.66;100702.01;1698469;82;25605;-68
2022/09/23 02:29:20;;;;;;;12.98;7.92;;;;;;;5.96;86.66;100703.65;1711916;83;25754;-69
2022/09/23 02:32:13;;;;;;;12.47;7.80;;;;;;;6.01;86.58;100703.37;1682493;83;25722;-68
2022/09/23 02:34:54;;;;;;;13.05;7.87;;;;;;;6.03;86.48;100702.04;1698978;83;25568;-69
2022/09/23 02:37:54;;;;;;;15.48;8.23;;;;;;;6.06;86.57;100704.71;1698300;83;27401;-69
2022/09/23 02:41:06;;;;;;;11.97;7.75;;;;;;;6.08;86.38;100706.59;1698500;82;25837;-69
2022/09/23 02:43:54;;;;;;;14.00;7.55;;;;;;;6.08;86.29;100702.55;1699020;83;25763;-69
2022/09/23 02:46:21;;;;;;;15.30;8.38;;;;;;;6.08;86.29;100702.55;1689404;83;27815;-68
2022/09/23 02:49:02;;;;;;;12.55;8.20;;;;;;;6.07;86.02;100699.62;1735590;82;25570;-68
2022/09/23 02:51:34;;;;;;;16.25;8.40;;;;;;;6.06;85.99;100700.69;1700667;84;27356;-68
2022/09/23 02:53:59;;;;;;;15.03;8.98;;;;;;;6.04;85.66;100706.32;1651906;83;25521;-68
2022/09/23 02:56:25;;;;;;;12.88;8.63;;;;;;;6.00;85.62;100699.89;1711612;81;25468;-68
2022/09/23 02:58:54;;;;;;;13.78;8.53;;;;;;;6.00;85.51;100708.48;1699587;83;25727;-69
2022/09/23 03:01:32;;;;;;;15.23;9.85;;;;;;;5.97;85.43;100705.78;1699680;83;25586;-69
2022/09/23 03:04:30;;;;;;;15.08;8.68;;;;;;;5.97;85.50;100714.64;1699137;83;27447;-69
2022/09/23 03:07:13;;;;;;;17.65;10.43;;;;;;;5.94;85.32;100712.48;1688001;83;25471;-69
2022/09/23 03:09:51;;;;;;;14.00;9.78;;;;;;;5.92;85.26;100709.23;1686445;83;25636;-68
2022/09/23 03:12:38;;;;;;;20.45;10.25;;;;;;;5.92;85.19;100714.61;1686079;83;27854;-68
2022/09/23 03:15:19;;;;;;;15.58;9.50;;;;;;;5.91;85.54;100711.67;1651009;85;25549;-68
2022/09/23 03:17:56;;;;;;;16.67;9.65;;;;;;;5.91;85.78;100707.64;1627287;86;27408;-68
2022/09/23 03:20:33;;;;;;;15.75;9.95;;;;;;;5.92;85.92;100707.89;1627765;88;25752;-68
2022/09/23 03:23:07;;;;;;;15.25;9.43;;;;;;;5.92;86.11;100704.41;1627943;86;25506;-69
2022/09/23 03:25:37;;;;;;;14.98;9.43;;;;;;;5.94;86.25;100699.05;1627819;86;25808;-67
2022/09/23 03:28:07;;;;;;;18.98;10.23;;;;;;;5.96;86.36;100705.53;1605839;87;25531;-69
2022/09/23 03:30:37;;;;;;;;;;;;;;;5.97;86.36;100700.41;1593920;88;27330;-68
2022/09/23 03:33:08;;;;;;;15.70;9.00;;;;;;;5.98;86.33;100699.36;1593332;90;25776;-68
2022/09/23 03:36:50;;;;;;;15.83;9.55;;;;;;;5.98;86.42;100700.16;1622580;88;25718;-68
2022/09/23 03:38:15;;;;;;;16.07;10.45;;;;;;;5.97;86.33;100700.41;1622493;86;25704;-68
2022/09/23 03:40:46;;;;;;;14.73;9.60;;;;;;;5.96;86.18;100697.48;1593919;88;25709;-70
2022/09/23 03:43:13;;;;;;;15.88;10.03;;;;;;;5.95;86.13;100695.83;1622604;86;27397;-68
2022/09/23 03:45:41;;;;;;;16.15;9.55;;;;;;;5.93;86.10;100696.64;1600472;87;25684;-68
2022/09/23 03:48:08;;;;;;;15.90;9.98;;;;;;;5.92;85.99;100694.47;1680175;85;25677;-68
2022/09/23 03:50:34;;;;;;;13.65;9.55;;;;;;;5.90;85.99;100687.77;1680598;83;25730;-68
2022/09/23 03:53:01;;;;;;;13.13;8.65;;;;;;;5.86;85.89;100687.50;1680716;85;25638;-68
2022/09/23 03:55:27;;;;;;;16.48;10.20;;;;;;;5.85;85.81;100696.62;1680597;83;27318;-68
2022/09/23 03:57:54;;;;;;;15.30;8.83;;;;;;;5.82;85.68;100693.66;1680556;85;25464;-68
2022/09/23 04:00:21;;;;;;;16.50;9.88;;;;;;;5.76;85.55;100690.17;1651933;86;25657;-69
2022/09/23 04:02:48;;;;;;;15.80;9.38;;;;;;;5.73;85.61;100689.36;1685643;85;26449;-68
2022/09/23 04:05:18;;;;;;;14.60;8.70;;;;;;;5.70;85.63;100693.37;1685759;84;25249;-68
2022/09/23 04:07:49;;;;;;;13.80;9.03;;;;;;;5.66;85.54;100682.91;1685703;85;28126;-68
2022/09/23 04:10:18;;;;;;;13.45;8.65;;;;;;;5.63;85.47;100688.80;1685672;84;25581;-68
2022/09/23 04:12:44;;;;;;;13.55;8.90;;;;;;;5.60;85.44;100689.33;1652231;86;25605;-68
2022/09/23 04:15:11;;;;;;;15.88;9.60;;;;;;;5.57;85.29;100693.91;1685758;85;25616;-68
2022/09/23 04:17:37;;;;;;;14.43;9.35;;;;;;;5.53;85.27;100688.23;1685563;85;25483;-68
2022/09/23 04:20:05;;;;;;;16.62;9.45;;;;;;;5.50;85.21;100692.82;1652159;85;27349;-68
2022/09/23 04:22:37;;;;;;;13.05;8.55;;;;;;;5.49;85.23;100703.81;1685217;85;25605;-69
2022/09/23 04:25:04;;;;;;;13.85;9.03;;;;;;;5.47;85.21;100695.23;1685603;84;25405;-68
2022/09/23 04:27:31;;;;;;;14.78;9.75;;;;;;;5.42;85.09;100696.81;1652169;85;25633;-69
2022/09/23 04:29:58;;;;;;;17.10;10.18;;;;;;;5.38;85.07;100699.77;1727481;80;25614;-68
2022/09/23 04:32:24;;;;;;;16.75;10.10;;;;;;;5.35;85.17;100700.28;1696055;83;27448;-69
2022/09/23 04:34:51;;;;;;;15.50;10.05;;;;;;;5.34;85.28;100696.52;1685956;85;25625;-69
2022/09/23 04:37:18;;;;;;;14.83;9.60;;;;;;;5.32;85.35;100698.66;1686082;85;25448;-69
2022/09/23 04:39:44;;;;;;;16.23;10.20;;;;;;;5.30;85.47;100701.61;1695993;83;26282;-68
2022/09/23 04:42:11;;;;;;;15.75;9.95;;;;;;;5.29;85.50;100699.98;1686118;85;25662;-68
2022/09/23 04:44:38;;;;;;;16.07;9.85;;;;;;;5.30;85.54;100704.84;1696086;83;27334;-68
2022/09/23 04:47:27;;;;;;;21.02;11.43;;;;;;;5.28;85.56;100701.07;1695918;83;27144;-69
2022/09/23 04:49:53;;;;;;;17.10;10.53;;;;;;;5.26;85.65;100698.37;1603687;87;25571;-68
2022/09/23 04:52:20;;;;;;;13.78;9.43;;;;;;;5.27;85.71;100699.99;1612674;87;25690;-69
2022/09/23 04:54:46;;;;;;;15.88;10.10;;;;;;;5.27;85.65;100702.67;1612825;88;25524;-69
2022/09/23 04:57:13;;;;;;;16.07;9.60;;;;;;;5.26;85.65;100695.69;1603649;88;27347;-69
2022/09/23 04:59:40;;;;;;;15.43;9.50;;;;;;;5.27;85.70;100701.34;1599998;87;25696;-69
2022/09/23 05:02:06;;;;;;;14.15;9.20;;;;;;;5.26;85.64;100693.83;1599651;89;25644;-68
2022/09/23 05:04:35;;;;;;;15.93;9.70;;;;;;;5.26;85.77;100699.20;1600280;87;26011;-68
2022/09/23 05:07:03;;;;;;;15.60;9.50;;;;;;;5.27;85.76;100699.99;1599790;89;25642;-68
2022/09/23 05:09:29;;;;;;;17.85;9.88;;;;;;;5.28;85.87;100697.56;1602641;87;27248;-68
2022/09/23 05:11:56;;;;;;;19.10;10.60;;;;;;;5.30;86.11;100699.47;1603313;87;25661;-69
2022/09/23 05:14:23;;;;;;;19.35;11.30;;;;;;;5.34;86.45;100695.18;1603045;88;25599;-68
2022/09/23 05:16:50;;;;;;;16.27;9.88;;;;;;;5.40;86.72;100696.27;1603406;87;25782;-69
2022/09/23 05:19:16;;;;;;;15.63;9.78;;;;;;;5.46;87.08;100701.11;1603064;88;25522;-68
2022/09/23 05:21:43;;;;;;;18.80;10.35;;;;;;;5.53;87.45;100698.97;1602886;89;27311;-68
2022/09/23 05:24:11;;;;;;;15.48;10.35;;;;;;;5.60;87.54;100695.52;1602646;88;27331;-69
2022/09/23 05:26:41;;;;;;;15.75;9.68;;;;;;;5.69;87.70;100697.69;1620568;85;25475;-68
2022/09/23 05:29:08;;;;;;;15.68;10.43;;;;;;;5.79;88.34;100699.05;1671411;84;26205;-67
2022/09/23 05:31:35;;;;;;;13.85;9.48;;;;;;;5.91;88.70;100696.11;1679340;85;25789;-68
2022/09/23 05:34:05;;;;;;;16.73;10.15;;;;;;;6.01;88.74;100693.45;1688822;83;27521;-68
2022/09/23 05:36:34;;;;;;;18.07;9.38;;;;;;;6.12;88.89;100700.97;1732990;82;25669;-67
2022/09/23 05:39:02;;;;;;;13.18;8.73;;;;;;;6.23;89.13;100701.24;1733414;81;25432;-68
2022/09/23 05:41:30;;;;;;;19.82;10.23;;;;;;;6.35;89.49;100696.39;1742931;82;25606;-68
2022/09/23 05:44:16;;;;;;;15.55;9.58;;;;;;;6.49;89.78;100699.87;1741537;80;25405;-68
2022/09/23 05:46:44;;;;;;;14.65;8.65;;;;;;;6.60;89.98;100698.75;1634790;87;29721;-68
2022/09/23 05:49:13;;;;;;;18.92;9.20;;;;;;;6.79;90.54;100702.20;1633906;86;25616;-68
2022/09/23 05:51:40;;;;;;;13.45;8.53;;;;;;;6.93;90.70;100704.60;1630883;86;25687;-68
2022/09/23 05:54:07;;;;;;;12.82;8.43;;;;;;;7.08;90.91;100704.55;1599016;88;25666;-68
2022/09/23 05:56:36;;;;;;;15.50;8.60;;;;;;;7.26;91.28;100705.00;1636417;86;25642;-68
2022/09/23 05:59:05;;;;;;;16.82;8.88;;;;;;;7.43;91.62;100708.68;1638332;86;27337;-68
2022/09/23 06:01:35;;;;;;;15.70;9.58;;;;;;;7.60;91.37;100705.63;1635628;86;25835;-68
2022/09/23 06:04:04;;;;;;;;;;;;;;;7.79;92.16;100707.91;1637073;86;25723;-68
2022/09/23 06:06:36;;;;;;;16.05;9.25;;;;;;;7.99;92.28;100711.56;1634449;86;25685;-68
2022/09/23 06:09:05;;;;;;;14.43;9.38;;;;;;;8.20;92.49;100705.45;1633035;86;25611;-68
2022/09/23 06:11:34;;;;;;;17.73;9.70;;;;;;;8.43;92.94;100704.46;1656344;86;27390;-69
2022/09/23 06:14:02;;;;;;;14.43;9.58;;;;;;;8.66;93.15;100698.86;1636519;86;25416;-69
2022/09/23 06:16:33;;;;;;;16.90;10.30;;;;;;;8.89;92.94;100710.76;1656742;86;25628;-67
2022/09/23 06:19:04;;;;;;;16.20;9.93;;;;;;;9.14;93.39;100713.16;1652524;86;25788;-68
2022/09/23 06:21:34;;;;;;;15.25;9.33;;;;;;;9.46;93.90;100717.05;1611058;88;25607;-67
2022/09/23 06:24:01;;;;;;;13.90;8.80;;;;;;;9.70;92.83;100714.30;1633320;86;27222;-68
2022/09/23 06:26:31;;;;;;;13.58;8.48;;;;;;;9.79;90.39;100713.61;1610842;88;25806;-68
2022/09/23 06:28:57;;;;;;;13.80;8.30;;;;;;;9.82;89.41;100712.48;1640438;86;25821;-68
2022/09/23 06:31:24;;;;;;;13.58;8.18;;;;;;;10.01;89.84;100715.19;1655818;86;26375;-69
2022/09/23 06:33:52;;;;;;;10.20;6.97;;;;;;;10.27;90.58;100709.36;1655605;86;26268;-69
2022/09/23 06:36:21;;;;;;;10.03;7.28;;;;;;;10.57;91.09;100708.58;1610111;88;28378;-69
2022/09/23 06:38:48;;;;;;;11.57;8.58;;;;;;;10.85;90.65;100712.13;1645200;86;25857;-69
2022/09/23 06:41:16;;;;;;;12.65;8.30;;;;;;;11.19;90.92;100710.91;1599492;88;25687;-69
2022/09/23 06:43:42;;;;;;;13.32;8.35;;;;;;;11.50;90.38;100708.34;1635417;86;25780;-69
2022/09/23 06:46:14;;;;;;;10.18;7.75;;;;;;;11.86;90.62;100709.44;1632825;86;25448;-69
2022/09/23 06:48:42;;;;;;;9.68;5.67;;;;;;;12.32;90.97;100705.63;1596032;88;27337;-68
2022/09/23 06:51:17;;;;;;;9.18;5.47;;;;;;;12.67;88.47;100703.11;1597167;89;25668;-69
2022/09/23 06:53:40;;;;;;;9.33;6.33;;;;;;;12.86;85.82;100704.20;1596354;88;25747;-69
2022/09/23 06:56:10;;;;;;;8.58;5.65;;;;;;;12.98;85.04;100700.33;1596327;89;25672;-69
2022/09/23 06:58:37;;;;;;;9.23;5.45;;;;;;;13.07;83.43;100705.21;1593486;89;25485;-69
2022/09/23 07:01:08;;;;;;;8.95;4.42;;;;;;;13.20;82.83;100710.86;1590183;89;27347;-69
2022/09/23 07:03:35;;;;;;;6.92;4.78;;;;;;;13.27;81.06;100711.19;1576288;89;25904;-69
2022/09/23 07:06:05;;;;;;;8.45;5.45;;;;;;;13.36;80.90;100718.81;1590621;89;25618;-69
2022/09/23 07:08:34;;;;;;;6.50;4.62;;;;;;;13.55;81.79;100715.00;1583298;90;25796;-69
2022/09/23 07:11:06;;;;;;;7.57;4.70;;;;;;;13.83;81.55;100717.66;1596431;89;25684;-68
2022/09/23 07:13:35;;;;;;;9.93;4.35;;;;;;;14.06;80.76;100725.63;1590670;90;27424;-69
2022/09/23 07:16:02;;;;;;;;;;;;;;;14.20;79.54;100722.75;1599152;89;25646;-69
2022/09/23 07:18:32;;;;;;;5.47;3.95;;;;;;;14.45;79.39;100721.64;1580989;88;25617;-70
2022/09/23 07:21:14;;;;;;;6.10;4.42;;;;;;;14.82;78.85;100720.67;1592322;89;26273;-70
2022/09/23 07:23:46;;;;;;;7.78;4.03;;;;;;;15.13;78.28;100712.17;1600915;89;25491;-69
2022/09/23 07:26:15;;;;;;;5.28;4.30;;;;;;;15.34;76.44;100712.77;1644979;86;28036;-69
2022/09/23 07:28:42;;;;;;;5.37;3.55;;;;;;;15.61;76.57;100716.36;1641085;87;25702;-68
2022/09/23 07:31:16;;;;;;;4.90;3.67;;;;;;;16.05;75.46;100715.43;1643206;87;25767;-68
2022/09/23 07:33:43;;;;;;;9.18;4.17;;;;;;;16.39;75.08;100716.80;1644554;87;25630;-68
2022/09/23 07:36:16;;;;;;;7.67;5.05;;;;;;;16.91;74.70;100715.42;1643296;87;25808;-68
2022/09/23 07:38:43;;;;;;;6.10;3.30;;;;;;;17.39;74.00;100709.67;1645187;85;27866;-68
2022/09/23 07:41:14;;;;;;;4.28;3.22;;;;;;;18.00;72.48;100712.81;1641849;87;25498;-68
2022/09/23 07:43:44;;;;;;;6.00;3.55;;;;;;;18.64;70.38;100711.52;1639476;86;25629;-69
2022/09/23 07:46:16;;;;;;;6.03;2.60;;;;;;;19.15;68.10;100718.44;1642823;86;29553;-68
2022/09/23 07:48:44;;;;;;;8.00;3.67;;;;;;;19.54;66.66;100708.91;1611204;89;25442;-68
2022/09/23 07:51:19;;;;;;;3.00;2.70;;;;;;;20.07;65.48;100713.91;1611402;89;27403;-68
2022/09/23 07:53:50;;;;;;;2.10;1.75;;;;;;;20.52;63.92;100705.50;1649307;86;25643;-68
2022/09/23 07:56:20;;;;;;;2.95;2.30;;;;;;;20.88;62.32;100708.07;1649476;86;25749;-69
2022/09/23 07:58:58;;;;;;;;;;;;;;;21.36;61.21;100704.83;1613278;89;25743;-69
2022/09/23 08:01:19;;;;;;;2.55;1.70;;;;;;;21.78;59.30;100706.57;1647908;86;25660;-69
2022/09/23 08:03:45;;;;;;;2.00;1.60;;;;;;;22.11;58.00;100704.36;1610599;89;27404;-68
2022/09/23 08:06:13;;;;;;;4.37;2.00;;;;;;;22.26;56.55;100695.66;1617870;86;25661;-70
2022/09/23 08:08:45;;;;;;;4.50;1.70;;;;;;;22.54;55.88;100699.87;1644522;86;25651;-69
2022/09/23 08:11:13;;;;;;;2.02;1.70;;;;;;;22.75;55.05;100694.53;1640552;87;25923;-68
2022/09/23 08:13:40;;;;;;;58.90;50.45;;;;;;;23.02;53.97;100694.91;1638155;86;25605;-68
2022/09/23 08:16:07;;;;;;;1.87;1.57;;;;;;;22.81;52.50;100695.56;1648266;86;27455;-68
2022/09/23 08:18:34;;;;;;;1.02;0.95;;;;;;;22.89;51.71;100686.95;1642528;86;25742;-68
2022/09/23 08:21:02;;;;;;;1.95;1.30;;;;;;;22.54;50.14;100688.84;1647946;87;25698;-67
2022/09/23 08:23:32;;;;;;;1.82;1.50;;;;;;;21.96;49.66;100687.48;1647854;87;25666;-67
2022/09/23 08:26:03;;;;;;;1.87;1.02;;;;;;;21.48;49.58;100685.95;1648021;87;25703;-70
2022/09/23 08:28:32;;;;;;;13.13;5.78;;;;;;;21.20;51.39;100681.04;1647993;87;27280;-69
2022/09/23 08:30:59;;;;;;;1.67;1.22;;;;;;;21.07;50.58;100686.55;1648087;87;25791;-71
2022/09/23 08:33:27;;;;;;;1.20;0.82;;;;;;;20.76;50.38;100686.28;1648776;87;25712;-68
2022/09/23 08:36:00;;;;;;;1.20;1.10;;;;;;;20.55;50.41;100682.00;1648429;87;26131;-67
2022/09/23 08:38:27;;;;;;;1.67;0.90;;;;;;;20.14;50.60;100681.66;1649578;86;25634;-67
2022/09/23 08:41:08;;;;;;;1.50;0.88;;;;;;;19.96;51.36;100678.02;1649293;86;28116;-68
2022/09/23 08:43:37;;;;;;;2.58;2.08;;;;;;;20.09;52.81;100677.84;1649212;86;25955;-68
2022/09/23 08:46:09;;;;;;;3.83;3.42;;;;;;;20.38;51.91;100681.91;1643548;86;34868;-68
2022/09/23 08:48:42;;;;;;;2.27;2.00;;;;;;;20.37;51.53;100679.53;1655880;85;25775;-69
2022/09/23 08:51:35;;;;;;;2.60;1.30;;;;;;;20.76;51.76;100681.57;1636623;87;25723;-67
2022/09/23 08:54:01;;;;;;;1.80;0.90;;;;;;;20.91;50.42;100675.72;1630084;87;27399;-67
2022/09/23 08:56:31;;;;;;;1.80;1.45;;;;;;;20.56;49.53;100673.17;1638365;87;25642;-66
2022/09/23 08:59:21;;;;;;;;;;;;;;;20.43;50.10;100678.05;1612253;87;25738;-67
2022/09/23 09:01:58;;;;;;;1.45;1.35;;;;;;;20.21;49.21;100674.95;1651286;85;25723;-67
2022/09/23 09:04:44;;;;;;;1.50;1.40;;;;;;;19.82;48.70;100662.66;1630706;87;25667;-67
2022/09/23 09:07:14;;;;;;;3.05;2.47;;;;;;;19.55;49.21;100661.70;1641723;85;27688;-67
2022/09/23 09:10:15;;;;;;;2.35;2.15;;;;;;;19.42;50.71;100663.78;1630013;87;25725;-66
2022/09/23 09:12:49;;;;;;;1.90;1.80;;;;;;;19.75;51.15;100655.09;1631081;87;25659;-67
2022/09/23 09:15:23;;;;;;;1.95;1.30;;;;;;;20.43;52.61;100662.38;1630213;87;25729;-66
2022/09/23 09:18:10;;;;;;;2.35;1.37;;;;;;;20.96;51.49;100659.47;1629089;85;26422;-67
2022/09/23 09:21:00;;;;;;;3.05;1.32;;;;;;;21.48;50.31;100650.17;1656709;85;27582;-67
2022/09/23 09:23:53;;;;;;;3.20;1.32;;;;;;;21.52;48.96;100652.38;1645442;85;25622;-67
2022/09/23 09:26:30;;;;;;;1.72;1.50;;;;;;;21.15;47.14;100650.33;1645724;87;25681;-66
2022/09/23 09:29:06;;;;;;;2.55;1.50;;;;;;;20.57;46.45;100653.58;1645729;85;26259;-67
2022/09/23 09:31:48;;;;;;;3.98;2.30;;;;;;;20.12;46.20;100664.77;1647653;85;25625;-67
2022/09/23 09:34:41;;;;;;;1.60;1.15;;;;;;;20.19;48.60;100653.12;1643494;85;27370;-66
2022/09/23 09:37:32;;;;;;;1.92;1.20;;;;;;;20.60;48.89;100648.72;1621638;86;25696;-67
2022/09/23 09:40:00;;;;;;;4.65;1.60;;;;;;;21.03;50.37;100648.59;1641703;85;25705;-67
2022/09/23 09:42:38;;;;;;;2.62;1.35;;;;;;;21.50;48.55;100649.99;1597185;88;25669;-66
2022/09/23 09:45:19;;;;;;;3.05;1.50;;;;;;;21.81;48.12;100649.36;1646362;87;25706;-66
2022/09/23 09:48:04;;;;;;;1.15;1.10;;;;;;;22.20;47.95;100643.45;1601206;88;27323;-68
2022/09/23 09:50:47;;;;;;;6.50;1.62;;;;;;;22.67;46.88;100637.75;1596236;88;25753;-75
2022/09/23 09:53:34;;;;;;;3.10;1.35;;;;;;;23.27;47.36;100636.54;1598747;89;25604;-67
2022/09/23 09:56:12;;;;;;;0.65;0.65;;;;;;;23.28;44.27;100645.03;1564974;91;25727;-66
2022/09/23 09:59:11;;;;;;;4.35;0.70;;;;;;;22.70;43.24;100639.75;1564800;91;25865;-67
2022/09/23 10:01:38;;;;;;;1.02;0.88;;;;;;;22.08;42.84;100643.14;1564266;91;27376;-67
2022/09/23 10:04:26;;;;;;;1.20;1.10;;;;;;;21.71;44.52;100635.70;1564801;91;25809;-66
2022/09/23 10:07:14;;;;;;;0.98;0.72;;;;;;;22.11;45.48;100640.22;1563787;91;25897;-65
2022/09/23 10:09:50;;;;;;;3.25;2.50;;;;;;;22.55;44.63;100639.45;1549446;91;25792;-64
2022/09/23 10:12:23;;;;;;;2.20;1.15;;;;;;;22.88;43.96;100637.13;1564976;91;25731;-63
2022/09/23 10:14:56;;;;;;;1.27;0.88;;;;;;;22.88;43.04;100629.41;1561673;90;27722;-65
2022/09/23 10:17:32;;;;;;;1.30;1.17;;;;;;;22.38;41.31;100631.24;1565211;90;25904;-66
2022/09/23 10:20:04;;;;;;;1.30;1.10;;;;;;;21.82;41.95;100626.17;1565075;91;25792;-65
2022/09/23 10:22:38;;;;;;;0.68;0.68;;;;;;;21.82;42.82;100620.67;1561860;91;25772;-66
2022/09/23 10:25:20;;;;;;;6.08;1.15;;;;;;;22.11;43.09;100610.71;1578770;89;25689;-65
2022/09/23 10:27:47;;;;;;;1.92;1.05;;;;;;;22.37;42.24;100612.55;1583606;88;27976;-65
2022/09/23 10:30:25;;;;;;;2.65;1.17;;;;;;;22.50;42.90;100613.02;1590341;88;25679;-65
2022/09/23 10:32:56;;;;;;;1.22;1.07;;;;;;;22.75;42.58;100615.17;1590575;88;25762;-66
2022/09/23 10:35:27;;;;;;;1.22;1.00;;;;;;;22.83;41.45;100614.05;1590097;88;25764;-66
2022/09/23 10:37:59;;;;;;;1.72;1.10;;;;;;;22.81;41.44;100608.70;1588146;88;25515;-65
2022/09/23 10:46:41;;;;;;;1.30;1.10;;;;;;;23.01;41.24;100598.17;1561341;91;25799;-65
2022/09/23 10:49:12;;;;;;;1.17;1.07;;;;;;;22.74;40.64;100606.09;1561345;91;26098;-64
2022/09/23 10:51:47;;;;;;;0.95;0.95;;;;;;;22.55;40.15;100604.39;1558451;91;25742;-63
2022/09/23 10:54:22;;;;;;;4.65;1.30;;;;;;;22.16;39.93;100604.85;1524448;92;27943;-64
2022/09/23 11:00:14;;;;;;;2.25;1.50;;;;;;;21.35;40.28;100606.94;1484279;96;25746;-65
2022/09/23 11:03:24;;;;;;;1.75;1.27;;;;;;;20.94;41.37;100611.72;1483325;96;25651;-65
2022/09/23 11:06:30;;;;;;;4.33;1.25;;;;;;;20.63;40.67;100603.23;1473488;96;25735;-65
2022/09/23 11:09:22;;;;;;;2.12;1.25;;;;;;;20.21;41.47;100605.48;1483865;95;27403;-65
2022/09/23 11:12:06;;;;;;;1.62;1.10;;;;;;;20.38;43.50;100603.63;1473392;96;25805;-65
2022/09/23 11:14:50;;;;;;;2.30;1.32;;;;;;;20.71;43.37;100600.81;1473230;96;25900;-65
2022/09/23 11:18:08;;;;;;;1.70;1.20;;;;;;;20.73;42.30;100599.06;1474218;96;25844;-64
2022/09/23 11:21:19;;;;;;;2.02;1.40;;;;;;;20.72;43.57;100591.38;1457825;96;25632;-64
2022/09/23 11:24:14;;;;;;;2.08;1.20;;;;;;;21.17;43.57;100596.52;1476895;96;27399;-64
2022/09/23 11:27:47;;;;;;;3.10;1.50;;;;;;;21.52;42.64;100594.58;1470455;96;25849;-66
2022/09/23 11:30:19;;;;;;;1.67;1.32;;;;;;;21.66;42.85;100594.75;1452706;97;26107;-66
2022/09/23 11:33:14;;;;;;;3.35;1.02;;;;;;;22.20;42.56;100587.78;1447171;97;25780;-67
2022/09/23 11:35:50;;;;;;;2.33;1.00;;;;;;;22.66;41.57;100599.54;1458398;94;25770;-65
2022/09/23 11:38:31;;;;;;;0.93;0.80;;;;;;;23.18;40.99;100583.70;1496222;93;27666;-66
2022/09/23 11:41:01;;;;;;;1.10;0.80;;;;;;;23.27;40.17;100577.81;1503734;93;25885;-66
2022/09/23 11:43:33;;;;;;;1.20;1.05;;;;;;;23.53;39.25;100581.44;1500993;93;25892;-67
2022/09/23 11:46:08;;;;;;;2.52;1.00;;;;;;;23.63;39.23;100569.63;1494739;95;25844;-67
2022/09/23 11:48:43;;;;;;;1.30;0.82;;;;;;;23.81;39.14;100572.42;1503164;93;25729;-67
2022/09/23 11:51:34;;;;;;;1.17;0.90;;;;;;;24.26;39.25;100569.30;1505975;93;27912;-65
2022/09/23 11:54:12;;;;;;;1.85;1.02;;;;;;;24.50;37.84;100569.06;1505583;93;25753;-65
2022/09/23 11:56:44;;;;;;;2.60;0.98;;;;;;;24.02;36.79;100568.91;1514693;90;25784;-66
2022/09/23 11:59:30;;;;;;;1.25;0.85;;;;;;;23.72;36.55;100568.67;1570869;89;25775;-67
2022/09/23 12:02:17;;;;;;;2.72;1.05;;;;;;;23.49;36.38;100564.27;1574250;89;25890;-66
2022/09/23 12:04:54;;;;;;;1.30;1.20;;;;;;;23.26;38.02;100555.55;1569749;89;27369;-67
2022/09/23 12:07:25;;;;;;;1.30;1.20;;;;;;;23.63;38.11;100552.48;1564114;89;25735;-67
2022/09/23 12:10:06;;;;;;;2.05;0.90;;;;;;;23.91;37.58;100550.95;1564496;89;25719;-66
2022/09/23 12:12:46;;;;;;;3.15;2.00;;;;;;;24.13;37.53;100556.49;1563345;89;25853;-65